createdAt,value
2023-02-02T00:01:50.387Z,101686.22
2023-02-02T00:04:26.204Z,101629.56
2023-02-02T00:06:54.985Z,101682.13
2023-02-02T00:09:23.417Z,101651.16
2023-02-02T00:11:51.331Z,101710.22
2023-02-02T00:14:19.179Z,101703.72
2023-02-02T00:16:52.263Z,101703.31
2023-02-02T00:19:23.093Z,101700.63
2023-02-02T00:21:51.394Z,101627.06
2023-02-02T00:24:19.972Z,101690.09
2023-02-02T00:26:51.062Z,101696.19
2023-02-02T00:29:31.808Z,101697.25
2023-02-02T00:31:59.568Z,101678.94
2023-02-02T00:34:28.375Z,101647.78
2023-02-02T00:36:56.291Z,101619.16
2023-02-02T00:39:28.847Z,101689.63
2023-02-02T00:41:57.029Z,101673.19
2023-02-02T00:44:43.451Z,101601.59
2023-02-02T00:47:11.687Z,101629.03
2023-02-02T00:49:39.720Z,101628.53
2023-02-02T00:52:07.864Z,101679.50
2023-02-02T00:54:36.312Z,101659.53
2023-02-02T00:57:04.238Z,101669.63
2023-02-02T00:59:32.555Z,101650.31
2023-02-02T01:02:02.386Z,101655.09
2023-02-02T01:04:31.543Z,101590.84
2023-02-02T01:06:59.263Z,101652.53
2023-02-02T01:09:27.360Z,101664.53
2023-02-02T01:11:55.189Z,101652.78
2023-02-02T01:14:23.266Z,101633.56
2023-02-02T01:16:52.098Z,101665.38
2023-02-02T01:19:20.282Z,101662.91
2023-02-02T01:21:48.173Z,101609.63
2023-02-02T01:24:16.062Z,101554.63
2023-02-02T01:26:43.849Z,101575.13
2023-02-02T01:29:12.379Z,101571.84
2023-02-02T01:31:40.931Z,101651.06
2023-02-02T01:34:09.410Z,101654.81
2023-02-02T01:36:37.650Z,101606.59
2023-02-02T01:39:05.505Z,101569.44
2023-02-02T01:41:33.625Z,101559.03
2023-02-02T01:44:05.656Z,101625.81
2023-02-02T01:46:36.095Z,101572.53
2023-02-02T01:49:22.407Z,101644.81
2023-02-02T01:51:58.254Z,101651.06
2023-02-02T01:54:36.556Z,101589.69
2023-02-02T01:57:10.155Z,101621.22
2023-02-02T01:59:38.811Z,101626.72
2023-02-02T02:02:07.245Z,101566.03
2023-02-02T02:04:35.829Z,101547.06
2023-02-02T02:07:05.887Z,101636.63
2023-02-02T02:09:34.894Z,101588.84
2023-02-02T02:12:02.928Z,101533.38
2023-02-02T02:14:49.191Z,101616.28
2023-02-02T02:17:49.560Z,101596.56
2023-02-02T02:21:10.117Z,101637.56
2023-02-02T02:24:15.327Z,101631.59
2023-02-02T02:27:07.955Z,101644.31
2023-02-02T02:29:52.112Z,101621.72
2023-02-02T02:32:40.431Z,101627.06
2023-02-02T02:35:27.416Z,101625.50
2023-02-02T02:38:06.563Z,101620.16
2023-02-02T02:40:51.922Z,101617.47
2023-02-02T02:43:35.359Z,101527.13
2023-02-02T02:46:04.338Z,101514.97
2023-02-02T02:48:33.388Z,101517.59
2023-02-02T02:51:29.534Z,101568.09
2023-02-02T02:53:57.562Z,101587.31
2023-02-02T02:56:38.586Z,101608.56
2023-02-02T02:59:21.682Z,101595.94
2023-02-02T03:02:04.838Z,101508.91
2023-02-02T03:04:57.526Z,101600.47
2023-02-02T03:07:51.880Z,101578.38
2023-02-02T03:10:26.620Z,101616.63
2023-02-02T03:12:55.703Z,101595.59
2023-02-02T03:15:25.620Z,101616.72
2023-02-02T03:17:54.253Z,101567.19
2023-02-02T03:20:22.306Z,101580.00
2023-02-02T03:22:50.387Z,101596.28
2023-02-02T03:25:18.034Z,101630.53
2023-02-02T03:27:45.902Z,101575.66
2023-02-02T03:30:16.202Z,101605.06
2023-02-02T03:32:45.446Z,101640.06
2023-02-02T03:35:13.165Z,101596.28
2023-02-02T03:37:41.054Z,101641.63
2023-02-02T03:40:09.670Z,101636.69
2023-02-02T03:42:37.379Z,101615.66
2023-02-02T03:45:07.038Z,101579.66
2023-02-02T03:47:37.894Z,101606.44
2023-02-02T03:50:09.940Z,101619.28
2023-02-02T03:52:38.032Z,101633.25
2023-02-02T03:55:06.748Z,101613.19
2023-02-02T03:57:36.138Z,101634.31
2023-02-02T04:00:06.125Z,101494.91
2023-02-02T04:02:43.412Z,101556.28
2023-02-02T04:05:11.051Z,101566.72
2023-02-02T04:07:38.917Z,101493.53
2023-02-02T04:10:07.211Z,101554.53
2023-02-02T04:12:36.339Z,101635.53
2023-02-02T04:15:04.502Z,101600.28
2023-02-02T04:17:32.444Z,101612.69
2023-02-02T04:20:00.179Z,101582.13
2023-02-02T04:22:27.983Z,101598.00
2023-02-02T04:24:55.789Z,101582.88
2023-02-02T04:27:23.593Z,101634.28
2023-02-02T04:29:51.389Z,101617.38
2023-02-02T04:32:19.158Z,101612.94
2023-02-02T04:34:48.293Z,101596.50
2023-02-02T04:37:15.956Z,101636.75
2023-02-02T04:39:43.799Z,101576.47
2023-02-02T04:42:11.550Z,101609.00
2023-02-02T04:44:39.883Z,101556.75
2023-02-02T04:47:07.674Z,101637.59
2023-02-02T04:49:41.058Z,101609.81
2023-02-02T04:52:11.105Z,101625.09
2023-02-02T04:54:39.256Z,101563.75
2023-02-02T04:57:07.038Z,101516.53
2023-02-02T04:59:34.849Z,101596.50
2023-02-02T05:02:02.940Z,101581.47
2023-02-02T05:04:30.797Z,101629.03
2023-02-02T05:06:58.530Z,101564.81
2023-02-02T05:09:26.690Z,101588.88
2023-02-02T05:11:54.527Z,101529.25
2023-02-02T05:14:22.436Z,101574.50
2023-02-02T05:16:51.071Z,101567.78
2023-02-02T05:19:18.807Z,101597.50
2023-02-02T05:21:50.653Z,101617.69
2023-02-02T05:24:18.831Z,101645.16
2023-02-02T05:26:47.226Z,101645.41
2023-02-02T05:29:15.311Z,101645.88
2023-02-02T05:31:42.985Z,101599.47
2023-02-02T05:34:11.825Z,101660.09
2023-02-02T05:36:39.658Z,101657.28
2023-02-02T05:39:07.483Z,101658.06
2023-02-02T05:41:35.555Z,101626.59
2023-02-02T05:44:04.700Z,101598.41
2023-02-02T05:46:32.523Z,101686.50
2023-02-02T05:49:00.429Z,101580.16
2023-02-02T05:51:32.126Z,101613.66
2023-02-02T05:54:01.094Z,101655.25
2023-02-02T05:56:28.945Z,101559.56
2023-02-02T05:58:56.815Z,101589.94
2023-02-02T06:01:24.709Z,101607.03
2023-02-02T06:03:52.587Z,101610.63
2023-02-02T06:06:20.572Z,101587.47
2023-02-02T06:08:48.394Z,101513.50
2023-02-02T06:11:18.981Z,101624.34
2023-02-02T06:13:47.035Z,101662.31
2023-02-02T06:16:15.062Z,101535.81
2023-02-02T06:18:43.114Z,101635.03
2023-02-02T06:21:11.860Z,101600.75
2023-02-02T06:23:45.711Z,101519.84
2023-02-02T06:26:14.454Z,101680.41
2023-02-02T06:28:43.483Z,101669.88
2023-02-02T06:31:12.103Z,101657.94
2023-02-02T06:33:40.290Z,101668.97
2023-02-02T06:36:08.164Z,101615.28
2023-02-02T06:38:36.051Z,101576.44
2023-02-02T06:41:07.176Z,101696.75
2023-02-02T06:43:35.063Z,101627.69
2023-02-02T06:46:03.022Z,101652.25
2023-02-02T06:48:31.940Z,101615.66
2023-02-02T06:51:00.434Z,101702.72
2023-02-02T06:53:28.298Z,101697.25
2023-02-02T06:55:57.699Z,101707.44
2023-02-02T06:58:27.914Z,101636.41
2023-02-02T07:00:56.121Z,101639.84
2023-02-02T07:03:23.939Z,101707.69
2023-02-02T07:05:51.669Z,101591.78
2023-02-02T07:08:19.891Z,101716.13
2023-02-02T07:11:13.924Z,101687.38
2023-02-02T07:13:36.117Z,101717.47
2023-02-02T07:16:05.076Z,101720.88
2023-02-02T07:18:32.841Z,101658.06
2023-02-02T07:21:01.663Z,101654.16
2023-02-02T07:23:31.076Z,101713.16
2023-02-02T07:26:08.004Z,101736.34
2023-02-02T07:28:36.531Z,101731.75
2023-02-02T07:31:17.877Z,101738.97
2023-02-02T07:33:46.867Z,101738.06
2023-02-02T07:36:17.204Z,101740.03
2023-02-02T07:38:47.543Z,101688.00
2023-02-02T07:41:16.052Z,101711.47
2023-02-02T07:43:47.784Z,101720.78
2023-02-02T07:46:17.550Z,101728.75
2023-02-02T07:48:45.636Z,101731.81
2023-02-02T07:51:18.509Z,101708.31
2023-02-02T07:53:48.856Z,101696.69
2023-02-02T07:56:22.314Z,101710.03
2023-02-02T07:58:53.519Z,101717.69
2023-02-02T08:01:23.283Z,101747.97
2023-02-02T08:03:51.784Z,101751.81
2023-02-02T08:06:28.530Z,101747.22
2023-02-02T08:08:56.453Z,101752.97
2023-02-02T08:11:26.171Z,101744.75
2023-02-02T08:13:58.473Z,101773.22
2023-02-02T08:16:30.299Z,101725.50
2023-02-02T08:18:58.699Z,101736.94
2023-02-02T08:21:27.066Z,101764.97
2023-02-02T08:23:55.320Z,101779.69
2023-02-02T08:26:28.255Z,101783.38
2023-02-02T08:29:01.593Z,101764.16
2023-02-02T08:31:36.256Z,101782.28
2023-02-02T08:34:05.280Z,101782.03
2023-02-02T08:36:35.630Z,101711.75
2023-02-02T08:39:10.735Z,101668.44
2023-02-02T08:41:39.046Z,101791.72
2023-02-02T08:44:13.234Z,101789.38
2023-02-02T08:46:42.299Z,101675.56
2023-02-02T08:49:13.900Z,101663.16
2023-02-02T08:51:42.175Z,101791.81
2023-02-02T08:54:10.393Z,101722.72
2023-02-02T08:56:39.139Z,101763.84
2023-02-02T08:59:07.933Z,101783.44
2023-02-02T09:01:36.199Z,101743.59
2023-02-02T09:04:07.625Z,101807.59
2023-02-02T09:06:38.150Z,101807.28
2023-02-02T09:09:08.182Z,101688.06
2023-02-02T09:11:36.335Z,101809.84
2023-02-02T09:14:06.733Z,101731.84
2023-02-02T09:16:36.138Z,101750.16
2023-02-02T09:19:05.279Z,101796.69
2023-02-02T09:21:37.394Z,101798.34
2023-02-02T09:24:10.477Z,101802.69
2023-02-02T09:26:40.768Z,101744.59
2023-02-02T09:29:13.295Z,101798.66
2023-02-02T09:31:41.871Z,101754.13
2023-02-02T09:34:13.464Z,101786.31
2023-02-02T09:36:42.633Z,101803.19
2023-02-02T09:39:15.326Z,101709.31
2023-02-02T09:42:05.016Z,101806.16
2023-02-02T09:45:00.205Z,101806.16
2023-02-02T09:47:55.549Z,101812.72
2023-02-02T09:50:35.726Z,101817.66
2023-02-02T09:53:14.844Z,101802.38
2023-02-02T09:55:46.711Z,101798.84
2023-02-02T09:58:19.242Z,101784.25
2023-02-02T10:01:13.885Z,101828.69
2023-02-02T10:04:05.669Z,101826.28
2023-02-02T10:06:42.591Z,101773.34
2023-02-02T10:09:35.229Z,101817.91
2023-02-02T10:12:21.943Z,101816.25
2023-02-02T10:14:59.226Z,101781.63
2023-02-02T10:17:43.918Z,101829.94
2023-02-02T10:20:30.894Z,101809.03
2023-02-02T10:23:06.956Z,101791.84
2023-02-02T10:25:35.908Z,101806.38
2023-02-02T10:28:11.505Z,101719.53
2023-02-02T10:30:46.063Z,101844.22
2023-02-02T10:33:39.057Z,101846.13
2023-02-02T10:36:07.667Z,101840.38
2023-02-02T10:38:53.373Z,101779.50
2023-02-02T10:41:30.505Z,101830.34
2023-02-02T10:44:23.695Z,101836.59
2023-02-02T10:46:55.872Z,101777.78
2023-02-02T10:49:32.660Z,101816.50
2023-02-02T10:52:31.510Z,101817.31
2023-02-02T10:55:04.565Z,101815.19
2023-02-02T10:57:58.175Z,101813.88
2023-02-02T11:00:42.424Z,101818.81
2023-02-02T11:03:13.560Z,101753.84
2023-02-02T11:06:00.409Z,101727.94
2023-02-02T11:08:36.624Z,101811.88
2023-02-02T11:11:20.278Z,101759.25
2023-02-02T11:13:48.347Z,101818.72
2023-02-02T11:16:16.036Z,101804.88
2023-02-02T11:18:46.100Z,101736.72
2023-02-02T11:21:32.753Z,101796.88
2023-02-02T11:24:06.854Z,101712.28
2023-02-02T11:27:27.216Z,101774.00
2023-02-02T11:29:59.324Z,101775.78
2023-02-02T11:32:30.905Z,101767.97
2023-02-02T11:35:04.891Z,101766.16
2023-02-02T11:37:35.359Z,101676.78
2023-02-02T11:40:22.791Z,101743.88
2023-02-02T11:42:52.865Z,101736.00
2023-02-02T11:45:35.722Z,101733.81
2023-02-02T11:48:16.840Z,101752.56
2023-02-02T11:50:53.997Z,101750.16
2023-02-02T11:53:24.841Z,101743.63
2023-02-02T11:55:54.375Z,101645.91
2023-02-02T11:58:30.656Z,101740.88
2023-02-02T12:01:01.891Z,101614.84
2023-02-02T12:03:31.817Z,101736.81
2023-02-02T12:06:04.890Z,101728.09
2023-02-02T12:08:32.770Z,101715.88
2023-02-02T12:11:03.607Z,101678.69
2023-02-02T12:13:57.734Z,101694.94
2023-02-02T12:16:34.371Z,101657.00
2023-02-02T12:19:21.033Z,101700.91
2023-02-02T12:21:58.813Z,101699.16
2023-02-02T12:24:44.312Z,101675.50
2023-02-02T12:27:39.943Z,101692.31
2023-02-02T12:30:41.197Z,101680.88
2023-02-02T12:33:44.328Z,101592.00
2023-02-02T12:36:33.944Z,101671.00
2023-02-02T12:39:09.111Z,101595.34
2023-02-02T12:42:07.765Z,101638.06
2023-02-02T12:45:10.937Z,101649.13
2023-02-02T12:48:02.312Z,101623.25
2023-02-02T12:50:54.714Z,101650.13
2023-02-02T12:54:34.185Z,101654.47
2023-02-02T12:57:01.046Z,101646.63
2023-02-02T12:59:42.206Z,101601.84
2023-02-02T13:02:18.928Z,101633.03
2023-02-02T13:07:57.076Z,101568.88
2023-02-02T13:10:32.553Z,101618.06
2023-02-02T13:13:29.338Z,101616.44
2023-02-02T13:16:08.113Z,101566.50
2023-02-02T13:18:52.090Z,101591.94
2023-02-02T13:21:24.003Z,101540.34
2023-02-02T13:23:56.452Z,101609.97
2023-02-02T13:26:35.670Z,101603.44
2023-02-02T13:29:09.517Z,101605.06
2023-02-02T13:31:47.049Z,101605.59
2023-02-02T13:34:30.580Z,101605.34
2023-02-02T13:37:20.213Z,101543.91
2023-02-02T13:39:55.306Z,101580.19
2023-02-02T13:42:40.712Z,101540.38
2023-02-02T13:45:25.166Z,101554.59
2023-02-02T13:48:00.562Z,101576.97
2023-02-02T13:50:31.092Z,101603.16
2023-02-02T13:53:17.392Z,101592.56
2023-02-02T13:56:08.387Z,101606.44
2023-02-02T13:59:01.582Z,101615.22
2023-02-02T14:01:32.437Z,101604.06
2023-02-02T14:04:01.073Z,101566.09
2023-02-02T14:06:31.044Z,101623.91
2023-02-02T14:09:05.686Z,101588.97
2023-02-02T14:11:43.198Z,101595.78
2023-02-02T14:14:32.305Z,101584.88
2023-02-02T14:17:01.167Z,101612.19
2023-02-02T14:19:30.587Z,101618.13
2023-02-02T14:21:59.925Z,101627.09
2023-02-02T14:24:27.632Z,101612.38
2023-02-02T14:26:58.571Z,101548.47
2023-02-02T14:29:33.030Z,101620.56
2023-02-02T14:32:15.801Z,101611.03
2023-02-02T14:34:45.005Z,101621.66
2023-02-02T14:37:37.759Z,101571.09
2023-02-02T14:40:06.722Z,101617.84
2023-02-02T14:42:55.743Z,101616.75
2023-02-02T14:45:27.189Z,101611.31
2023-02-02T14:48:02.589Z,101607.44
2023-02-02T14:50:57.923Z,101580.47
2023-02-02T14:53:33.819Z,101618.66
2023-02-02T14:56:18.553Z,101600.06
2023-02-02T14:59:00.212Z,101616.19
2023-02-02T15:01:37.643Z,101565.38
2023-02-02T15:04:18.532Z,101624.91
2023-02-02T15:06:47.248Z,101611.81
2023-02-02T15:09:22.475Z,101626.56
2023-02-02T15:12:01.201Z,101627.09
2023-02-02T15:14:53.299Z,101536.97
2023-02-02T15:17:30.269Z,101629.28
2023-02-02T15:20:20.904Z,101642.34
2023-02-02T15:22:48.688Z,101642.84
2023-02-02T15:25:54.276Z,101642.28
2023-02-02T15:28:25.553Z,101649.28
2023-02-02T15:30:58.699Z,101621.09
2023-02-02T15:33:44.015Z,101583.06
2023-02-02T15:36:16.875Z,101635.19
2023-02-02T15:38:46.714Z,101644.75
2023-02-02T15:41:27.969Z,101605.88
2023-02-02T15:43:55.699Z,101592.88
2023-02-02T15:46:32.520Z,101623.25
2023-02-02T15:49:33.205Z,101669.31
2023-02-02T15:52:11.080Z,101659.25
2023-02-02T15:54:38.848Z,101549.44
2023-02-02T15:57:32.983Z,101619.13
2023-02-02T16:00:21.528Z,101648.94
2023-02-02T16:03:01.511Z,101644.06
2023-02-02T16:05:32.237Z,101640.00
2023-02-02T16:08:05.921Z,101549.47
2023-02-02T16:10:35.462Z,101554.44
2023-02-02T16:13:03.827Z,101568.06
2023-02-02T16:15:33.029Z,101616.47
2023-02-02T16:18:15.518Z,101588.81
2023-02-02T16:20:44.856Z,101611.22
2023-02-02T16:23:16.075Z,101446.66
2023-02-02T16:25:51.621Z,101648.84
2023-02-02T16:28:22.328Z,101633.00
2023-02-02T16:30:51.898Z,101591.19
2023-02-02T16:33:36.833Z,101643.19
2023-02-02T16:36:29.794Z,101629.78
2023-02-02T16:39:01.110Z,101584.91
2023-02-02T16:41:34.788Z,101614.09
2023-02-02T16:44:39.909Z,101654.88
2023-02-02T16:47:30.481Z,101600.16
2023-02-02T16:50:11.474Z,101665.78
2023-02-02T16:52:54.101Z,101664.47
2023-02-02T16:55:23.839Z,101666.72
2023-02-02T16:57:52.479Z,101654.59
2023-02-02T17:00:27.068Z,101631.28
2023-02-02T17:03:10.339Z,101626.88
2023-02-02T17:05:54.222Z,101681.59
2023-02-02T17:08:31.554Z,101684.88
2023-02-02T17:11:04.135Z,101688.69
2023-02-02T17:13:32.433Z,101697.34
2023-02-02T17:16:00.853Z,101682.56
2023-02-02T17:18:28.725Z,101667.47
2023-02-02T17:20:58.427Z,101702.75
2023-02-02T17:23:28.769Z,101701.31
2023-02-02T17:25:57.096Z,101698.28
2023-02-02T17:28:26.710Z,101691.66
2023-02-02T17:31:04.036Z,101664.91
2023-02-02T17:33:35.428Z,101742.81
2023-02-02T17:36:04.823Z,101698.66
2023-02-02T17:38:33.147Z,101725.16
2023-02-02T17:41:02.660Z,101728.41
2023-02-02T17:43:33.043Z,101741.19
2023-02-02T17:46:00.819Z,101694.44
2023-02-02T17:48:28.797Z,101710.31
2023-02-02T17:50:56.575Z,101734.38
2023-02-02T17:53:24.382Z,101728.81
2023-02-02T17:55:52.516Z,101726.69
2023-02-02T17:58:20.520Z,101732.41
2023-02-02T18:00:54.058Z,101663.16
2023-02-02T18:03:33.724Z,101746.28
2023-02-02T18:06:03.094Z,101641.69
2023-02-02T18:08:33.171Z,101752.22
2023-02-02T18:11:01.654Z,101730.78
2023-02-02T18:13:29.365Z,101676.34
2023-02-02T18:15:59.981Z,101727.09
2023-02-02T18:18:29.847Z,101744.63
2023-02-02T18:20:59.115Z,101749.56
2023-02-02T18:23:27.057Z,101750.44
2023-02-02T18:25:54.880Z,101749.59
2023-02-02T18:28:22.637Z,101731.53
2023-02-02T18:30:50.448Z,101726.06
2023-02-02T18:33:20.171Z,101749.34
2023-02-02T18:35:48.473Z,101748.53
2023-02-02T18:38:16.398Z,101735.31
2023-02-02T18:40:44.246Z,101746.28
2023-02-02T18:43:12.186Z,101710.09
2023-02-02T18:45:39.836Z,101735.53
2023-02-02T18:48:07.645Z,101735.78
2023-02-02T18:50:36.182Z,101772.19
2023-02-02T18:53:04.157Z,101763.94
2023-02-02T18:55:32.181Z,101767.97
2023-02-02T18:58:01.317Z,101762.44
2023-02-02T19:00:29.274Z,101787.25
2023-02-02T19:02:57.069Z,101787.56
2023-02-02T19:05:44.170Z,101763.25
2023-02-02T19:08:12.499Z,101785.72
2023-02-02T19:10:40.313Z,101713.75
2023-02-02T19:13:19.846Z,101802.13
2023-02-02T19:15:49.495Z,101773.09
2023-02-02T19:18:21.594Z,101800.97
2023-02-02T19:20:50.852Z,101739.81
2023-02-02T19:23:24.365Z,101796.50
2023-02-02T19:25:56.474Z,101776.94
2023-02-02T19:28:29.110Z,101786.91
2023-02-02T19:30:59.698Z,101722.75
2023-02-02T19:33:48.031Z,101803.50
2023-02-02T19:36:21.313Z,101776.13
2023-02-02T19:38:52.471Z,101807.84
2023-02-02T19:41:24.366Z,101726.19
2023-02-02T19:43:58.455Z,101759.56
2023-02-02T19:46:28.047Z,101811.03
2023-02-02T19:49:28.595Z,101774.41
2023-02-02T19:51:58.505Z,101814.84
2023-02-02T19:54:41.246Z,101820.22
2023-02-02T19:57:21.956Z,101823.47
2023-02-02T19:59:52.811Z,101785.94
2023-02-02T20:02:43.774Z,101826.69
2023-02-02T20:05:11.744Z,101826.09
2023-02-02T20:07:40.788Z,101812.66
2023-02-02T20:10:23.990Z,101822.00
2023-02-02T20:12:55.644Z,101760.91
2023-02-02T20:15:34.221Z,101835.03
2023-02-02T20:18:12.801Z,101843.72
2023-02-02T20:20:44.167Z,101830.63
2023-02-02T20:23:44.438Z,101830.63
2023-02-02T20:26:14.525Z,101834.94
2023-02-02T20:28:45.468Z,101779.03
2023-02-02T20:31:17.996Z,101835.75
2023-02-02T20:33:52.219Z,101827.72
2023-02-02T20:36:42.607Z,101826.34
2023-02-02T20:39:36.869Z,101845.47
2023-02-02T20:42:04.982Z,101809.66
2023-02-02T20:44:35.740Z,101842.19
2023-02-02T20:47:05.145Z,101855.53
2023-02-02T20:49:33.182Z,101868.88
2023-02-02T20:52:05.031Z,101817.28
2023-02-02T20:54:34.406Z,101843.84
2023-02-02T20:57:05.848Z,101703.25
2023-02-02T20:59:33.683Z,101826.06
2023-02-02T21:02:02.171Z,101867.41
2023-02-02T21:04:31.672Z,101866.09
2023-02-02T21:07:00.182Z,101870.22
2023-02-02T21:09:27.948Z,101873.19
2023-02-02T21:11:56.180Z,101852.63
2023-02-02T21:14:23.936Z,101826.00
2023-02-02T21:16:57.273Z,101885.06
2023-02-02T21:19:29.992Z,101809.22
2023-02-02T21:21:57.791Z,101834.16
2023-02-02T21:24:25.793Z,101843.94
2023-02-02T21:26:54.107Z,101867.47
2023-02-02T21:29:23.894Z,101829.06
2023-02-02T21:31:52.582Z,101864.19
2023-02-02T21:34:21.326Z,101883.94
2023-02-02T21:36:50.900Z,101881.44
2023-02-02T21:39:36.032Z,101889.84
2023-02-02T21:42:22.554Z,101886.22
2023-02-02T21:44:57.258Z,101888.66
2023-02-02T21:47:38.453Z,101879.66
2023-02-02T21:50:24.658Z,101871.78
2023-02-02T21:53:25.760Z,101878.50
2023-02-02T21:55:59.986Z,101828.34
2023-02-02T21:58:40.404Z,101890.19
2023-02-02T22:01:24.659Z,101886.00
2023-02-02T22:03:52.801Z,101835.06
2023-02-02T22:06:43.093Z,101831.63
2023-02-02T22:09:13.890Z,101891.31
2023-02-02T22:11:59.362Z,101868.09
2023-02-02T22:14:39.111Z,101882.25
2023-02-02T22:17:22.550Z,101878.34
2023-02-02T22:19:55.166Z,101888.56
2023-02-02T22:22:25.889Z,101858.84
2023-02-02T22:25:03.993Z,101889.38
2023-02-02T22:27:42.271Z,101878.63
2023-02-02T22:30:26.053Z,101886.59
2023-02-02T22:32:55.949Z,101837.66
2023-02-02T22:35:25.144Z,101829.66
2023-02-02T22:37:53.355Z,101877.84
2023-02-02T22:40:22.854Z,101858.03
2023-02-02T22:42:51.980Z,101885.19
2023-02-02T22:45:20.054Z,101854.50
2023-02-02T22:47:48.537Z,101852.03
2023-02-02T22:50:22.437Z,101876.72
2023-02-02T22:52:50.994Z,101878.94
2023-02-02T22:55:20.197Z,101888.91
2023-02-02T22:57:48.194Z,101883.16
2023-02-02T23:00:21.274Z,101861.78
2023-02-02T23:02:49.490Z,101839.72
2023-02-02T23:05:21.743Z,101848.66
2023-02-02T23:07:49.940Z,101873.25
2023-02-02T23:10:20.313Z,101867.34
2023-02-02T23:12:48.573Z,101863.47
2023-02-02T23:15:16.431Z,101839.56
2023-02-02T23:17:46.318Z,101839.88
2023-02-02T23:20:16.023Z,101788.13
2023-02-02T23:22:44.098Z,101741.06
2023-02-02T23:25:13.971Z,101785.00
2023-02-02T23:27:42.192Z,101856.25
2023-02-02T23:30:11.747Z,101865.38
2023-02-02T23:32:40.175Z,101815.03
2023-02-02T23:35:10.408Z,101862.41
2023-02-02T23:37:38.711Z,101882.16
2023-02-02T23:40:11.273Z,101886.28
2023-02-02T23:42:39.166Z,101873.25
2023-02-02T23:45:07.298Z,101879.50
2023-02-02T23:47:35.413Z,101879.03
2023-02-02T23:50:06.960Z,101835.66
2023-02-02T23:52:36.037Z,101863.16
2023-02-02T23:55:04.938Z,101872.78
2023-02-02T23:57:33.940Z,101866.53
